| Date | Time | Temp. (oF) | Dew Point (oF) | Rel. Hum. (%) | Press. (in.) | Wind Dir. | Wind Speed (mph) | Hourly Rainfall (in.) |
|
|---|---|---|---|---|---|---|---|---|---|
| 1 | 06/24 | 00:00 | 67 | 57 | 71 | 30.16 | SSE | 1 | 0.00 |
| 2 | 06/23 | 23:00 | 69 | 56 | 64 | 30.15 | S | 0 | 0.00 |
| 3 | 06/23 | 22:00 | 71 | 56 | 61 | 30.14 | S | 1 | 0.00 |
| 4 | 06/23 | 21:00 | 74 | 57 | 57 | 30.12 | SSE | 1 | 0.00 |
| 5 | 06/23 | 20:00 | 79 | 56 | 46 | 30.10 | S | 2 | 0.00 |
| 6 | 06/23 | 19:00 | 81 | 52 | 38 | 30.10 | S | 4 | 0.00 |
| 7 | 06/23 | 18:00 | 81 | 52 | 38 | 30.10 | SSW | 1 | 0.00 |
| 8 | 06/23 | 17:00 | 81 | 52 | 37 | 30.11 | NNE | 4 | 0.00 |
| 9 | 06/23 | 16:00 | 80 | 53 | 41 | 30.12 | S | 2 | 0.00 |
| 10 | 06/23 | 15:00 | 79 | 53 | 42 | 30.15 | WNW | 4 | 0.00 |
| 11 | 06/23 | 14:00 | 78 | 55 | 46 | 30.16 | ENE | 2 | 0.00 |
| 12 | 06/23 | 13:00 | 76 | 54 | 48 | 30.18 | S | 7 | 0.00 |
| 13 | 06/23 | 12:00 | 74 | 55 | 53 | 30.19 | ENE | 1 | 0.00 |
| 14 | 06/23 | 11:00 | 72 | 53 | 53 | 30.20 | SSE | 4 | 0.00 |
| 15 | 06/23 | 10:00 | 70 | 54 | 58 | 30.20 | ESE | 6 | 0.00 |
| 16 | 06/23 | 09:00 | 67 | 53 | 61 | 30.19 | ESE | 4 | 0.00 |
| 17 | 06/23 | 08:00 | 59 | 51 | 75 | 30.19 | N | 2 | 0.00 |
| 18 | 06/23 | 07:00 | 53 | 50 | 92 | 30.19 | SW | 2 | 0.00 |
| 19 | 06/23 | 06:00 | 53 | 48 | 85 | 30.16 | S | 1 | 0.00 |
| 20 | 06/23 | 05:00 | 56 | 49 | 79 | 30.14 | W | 0 | 0.00 |
| 21 | 06/23 | 04:00 | 58 | 48 | 71 | 30.13 | SSE | 4 | 0.00 |
| 22 | 06/23 | 03:00 | 62 | 48 | 61 | 30.12 | WNW | 0 | 0.00 |
| 23 | 06/23 | 02:00 | 64 | 48 | 57 | 30.11 | N | 4 | 0.00 |
| 24 | 06/23 | 01:00 | 67 | 50 | 55 | 30.11 | NW | 3 | 0.00 |